sensor_id;sensor_type;location;lat;lon;timestamp;temperature;humidity
14604;DHT22;7388;51.078;13.740;2024-03-08T00:00:19;8.10;34.00
14604;DHT22;7388;51.078;13.740;2024-03-08T00:02:45;8.00;33.80
14604;DHT22;7388;51.078;13.740;2024-03-08T00:05:11;7.90;33.90
14604;DHT22;7388;51.078;13.740;2024-03-08T00:07:38;7.80;34.00
14604;DHT22;7388;51.078;13.740;2024-03-08T00:10:05;7.80;34.20
14604;DHT22;7388;51.078;13.740;2024-03-08T00:12:31;7.70;34.50
14604;DHT22;7388;51.078;13.740;2024-03-08T00:14:57;7.70;34.50
14604;DHT22;7388;51.078;13.740;2024-03-08T00:17:23;7.60;34.60
14604;DHT22;7388;51.078;13.740;2024-03-08T00:19:49;7.60;34.70
14604;DHT22;7388;51.078;13.740;2024-03-08T00:22:18;7.50;34.60
14604;DHT22;7388;51.078;13.740;2024-03-08T00:24:43;7.40;34.50
14604;DHT22;7388;51.078;13.740;2024-03-08T00:27:09;7.30;34.60
14604;DHT22;7388;51.078;13.740;2024-03-08T00:29:37;7.30;34.70
14604;DHT22;7388;51.078;13.740;2024-03-08T00:32:04;7.20;34.80
14604;DHT22;7388;51.078;13.740;2024-03-08T00:34:30;7.10;34.90
14604;DHT22;7388;51.078;13.740;2024-03-08T00:36:57;7.10;34.80
14604;DHT22;7388;51.078;13.740;2024-03-08T00:39:23;7.00;35.00
14604;DHT22;7388;51.078;13.740;2024-03-08T00:41:49;6.90;35.20
14604;DHT22;7388;51.078;13.740;2024-03-08T00:44:15;6.90;35.10
14604;DHT22;7388;51.078;13.740;2024-03-08T00:46:41;6.80;35.20
14604;DHT22;7388;51.078;13.740;2024-03-08T00:49:08;6.80;35.10
14604;DHT22;7388;51.078;13.740;2024-03-08T00:51:33;6.80;35.40
14604;DHT22;7388;51.078;13.740;2024-03-08T00:53:59;6.70;35.40
14604;DHT22;7388;51.078;13.740;2024-03-08T00:56:25;6.70;35.50
14604;DHT22;7388;51.078;13.740;2024-03-08T00:58:50;6.70;35.50
14604;DHT22;7388;51.078;13.740;2024-03-08T01:01:18;6.60;35.50
14604;DHT22;7388;51.078;13.740;2024-03-08T01:03:44;6.50;35.50
14604;DHT22;7388;51.078;13.740;2024-03-08T01:06:10;6.50;35.50
14604;DHT22;7388;51.078;13.740;2024-03-08T01:08:37;6.40;35.50
14604;DHT22;7388;51.078;13.740;2024-03-08T01:11:06;6.30;35.60
14604;DHT22;7388;51.078;13.740;2024-03-08T01:13:32;6.30;35.90
14604;DHT22;7388;51.078;13.740;2024-03-08T01:15:57;6.30;36.00
14604;DHT22;7388;51.078;13.740;2024-03-08T01:18:23;6.30;36.00
14604;DHT22;7388;51.078;13.740;2024-03-08T01:20:49;6.30;36.10
14604;DHT22;7388;51.078;13.740;2024-03-08T01:23:14;6.30;36.10
14604;DHT22;7388;51.078;13.740;2024-03-08T01:25:40;6.30;36.20
14604;DHT22;7388;51.078;13.740;2024-03-08T01:28:07;6.30;36.10
14604;DHT22;7388;51.078;13.740;2024-03-08T01:30:32;6.20;36.10
14604;DHT22;7388;51.078;13.740;2024-03-08T01:33:00;6.20;36.10
14604;DHT22;7388;51.078;13.740;2024-03-08T01:35:26;6.10;36.10
14604;DHT22;7388;51.078;13.740;2024-03-08T01:37:52;6.00;36.20
14604;DHT22;7388;51.078;13.740;2024-03-08T01:40:18;6.00;36.20
14604;DHT22;7388;51.078;13.740;2024-03-08T01:42:44;6.00;36.40
14604;DHT22;7388;51.078;13.740;2024-03-08T01:45:10;6.00;36.50
14604;DHT22;7388;51.078;13.740;2024-03-08T01:47:36;5.90;36.60
14604;DHT22;7388;51.078;13.740;2024-03-08T01:50:02;5.90;36.60
14604;DHT22;7388;51.078;13.740;2024-03-08T01:52:33;6.00;36.60
14604;DHT22;7388;51.078;13.740;2024-03-08T01:55:03;5.90;36.50
14604;DHT22;7388;51.078;13.740;2024-03-08T01:57:32;5.90;36.60
14604;DHT22;7388;51.078;13.740;2024-03-08T02:00:03;5.90;36.60
14604;DHT22;7388;51.078;13.740;2024-03-08T02:02:32;5.90;36.60
14604;DHT22;7388;51.078;13.740;2024-03-08T02:04:58;5.80;36.50
14604;DHT22;7388;51.078;13.740;2024-03-08T02:07:25;5.80;36.60
14604;DHT22;7388;51.078;13.740;2024-03-08T02:09:51;5.80;36.70
14604;DHT22;7388;51.078;13.740;2024-03-08T02:12:17;5.80;36.70
14604;DHT22;7388;51.078;13.740;2024-03-08T02:14:46;5.80;36.80
14604;DHT22;7388;51.078;13.740;2024-03-08T02:17:12;5.80;36.80
14604;DHT22;7388;51.078;13.740;2024-03-08T02:19:38;5.80;36.80
14604;DHT22;7388;51.078;13.740;2024-03-08T02:22:05;5.80;36.80
14604;DHT22;7388;51.078;13.740;2024-03-08T02:24:32;5.70;36.70
14604;DHT22;7388;51.078;13.740;2024-03-08T02:26:57;5.70;37.00
14604;DHT22;7388;51.078;13.740;2024-03-08T02:29:24;5.70;37.10
14604;DHT22;7388;51.078;13.740;2024-03-08T02:31:52;5.70;37.10
14604;DHT22;7388;51.078;13.740;2024-03-08T02:34:18;5.70;37.10
14604;DHT22;7388;51.078;13.740;2024-03-08T02:36:44;5.70;37.00
14604;DHT22;7388;51.078;13.740;2024-03-08T02:39:09;5.70;37.10
14604;DHT22;7388;51.078;13.740;2024-03-08T02:41:36;5.70;37.00
14604;DHT22;7388;51.078;13.740;2024-03-08T02:44:02;5.70;36.90
14604;DHT22;7388;51.078;13.740;2024-03-08T02:46:29;5.60;36.70
14604;DHT22;7388;51.078;13.740;2024-03-08T02:48:55;5.60;36.70
14604;DHT22;7388;51.078;13.740;2024-03-08T02:51:21;5.50;36.70
14604;DHT22;7388;51.078;13.740;2024-03-08T02:53:47;5.50;37.00
14604;DHT22;7388;51.078;13.740;2024-03-08T02:56:14;5.50;36.90
14604;DHT22;7388;51.078;13.740;2024-03-08T02:58:42;5.50;36.90
14604;DHT22;7388;51.078;13.740;2024-03-08T03:01:08;5.50;37.10
14604;DHT22;7388;51.078;13.740;2024-03-08T03:03:35;5.40;37.10
14604;DHT22;7388;51.078;13.740;2024-03-08T03:06:01;5.40;37.10
14604;DHT22;7388;51.078;13.740;2024-03-08T03:08:27;5.40;37.10
14604;DHT22;7388;51.078;13.740;2024-03-08T03:10:53;5.30;37.00
14604;DHT22;7388;51.078;13.740;2024-03-08T03:13:18;5.30;37.20
14604;DHT22;7388;51.078;13.740;2024-03-08T03:15:46;5.30;37.30
14604;DHT22;7388;51.078;13.740;2024-03-08T03:18:12;5.30;37.90
14604;DHT22;7388;51.078;13.740;2024-03-08T03:20:37;5.30;37.40
14604;DHT22;7388;51.078;13.740;2024-03-08T03:23:08;5.30;37.30
14604;DHT22;7388;51.078;13.740;2024-03-08T03:25:35;5.30;37.30
14604;DHT22;7388;51.078;13.740;2024-03-08T03:28:01;5.30;37.30
14604;DHT22;7388;51.078;13.740;2024-03-08T03:30:28;5.20;37.30
14604;DHT22;7388;51.078;13.740;2024-03-08T03:33:02;5.20;37.50
14604;DHT22;7388;51.078;13.740;2024-03-08T03:35:32;5.20;37.60
14604;DHT22;7388;51.078;13.740;2024-03-08T03:37:58;5.20;37.50
14604;DHT22;7388;51.078;13.740;2024-03-08T03:40:39;5.20;37.40
14604;DHT22;7388;51.078;13.740;2024-03-08T03:43:05;5.20;37.30
14604;DHT22;7388;51.078;13.740;2024-03-08T03:45:31;5.20;37.30
14604;DHT22;7388;51.078;13.740;2024-03-08T03:48:02;5.10;38.00
14604;DHT22;7388;51.078;13.740;2024-03-08T03:50:28;5.10;37.60
14604;DHT22;7388;51.078;13.740;2024-03-08T03:52:54;5.10;37.60
14604;DHT22;7388;51.078;13.740;2024-03-08T03:55:19;5.10;37.50
14604;DHT22;7388;51.078;13.740;2024-03-08T03:57:47;5.10;37.50
14604;DHT22;7388;51.078;13.740;2024-03-08T04:00:13;5.10;37.60
14604;DHT22;7388;51.078;13.740;2024-03-08T04:02:39;5.20;37.60
14604;DHT22;7388;51.078;13.740;2024-03-08T04:05:07;5.20;37.50
14604;DHT22;7388;51.078;13.740;2024-03-08T04:07:33;5.10;37.50
14604;DHT22;7388;51.078;13.740;2024-03-08T04:10:00;5.00;37.60
14604;DHT22;7388;51.078;13.740;2024-03-08T04:12:26;5.00;37.60
14604;DHT22;7388;51.078;13.740;2024-03-08T04:14:54;5.00;37.60
14604;DHT22;7388;51.078;13.740;2024-03-08T04:17:21;5.00;37.60
14604;DHT22;7388;51.078;13.740;2024-03-08T04:19:47;5.00;37.70
14604;DHT22;7388;51.078;13.740;2024-03-08T04:22:14;4.90;37.70
14604;DHT22;7388;51.078;13.740;2024-03-08T04:24:39;4.90;37.80
14604;DHT22;7388;51.078;13.740;2024-03-08T04:27:06;4.90;37.80
14604;DHT22;7388;51.078;13.740;2024-03-08T04:29:32;4.90;37.80
14604;DHT22;7388;51.078;13.740;2024-03-08T04:32:01;4.90;37.80
14604;DHT22;7388;51.078;13.740;2024-03-08T04:34:29;4.90;37.60
14604;DHT22;7388;51.078;13.740;2024-03-08T04:36:57;4.90;37.60
14604;DHT22;7388;51.078;13.740;2024-03-08T04:39:23;4.80;37.60
14604;DHT22;7388;51.078;13.740;2024-03-08T04:41:49;4.80;37.60
14604;DHT22;7388;51.078;13.740;2024-03-08T04:44:16;4.80;37.60
14604;DHT22;7388;51.078;13.740;2024-03-08T04:46:43;4.80;37.80
14604;DHT22;7388;51.078;13.740;2024-03-08T04:49:09;4.80;37.80
14604;DHT22;7388;51.078;13.740;2024-03-08T04:51:37;4.80;37.80
14604;DHT22;7388;51.078;13.740;2024-03-08T04:54:03;4.80;37.70
14604;DHT22;7388;51.078;13.740;2024-03-08T04:56:30;4.70;37.80
14604;DHT22;7388;51.078;13.740;2024-03-08T04:58:56;4.70;37.90
14604;DHT22;7388;51.078;13.740;2024-03-08T05:01:21;4.60;37.90
14604;DHT22;7388;51.078;13.740;2024-03-08T05:03:47;4.60;37.90
14604;DHT22;7388;51.078;13.740;2024-03-08T05:06:16;4.70;37.90
14604;DHT22;7388;51.078;13.740;2024-03-08T05:08:41;4.60;37.70
14604;DHT22;7388;51.078;13.740;2024-03-08T05:11:07;4.60;37.70
14604;DHT22;7388;51.078;13.740;2024-03-08T05:13:33;4.50;37.90
14604;DHT22;7388;51.078;13.740;2024-03-08T05:16:00;4.50;38.00
14604;DHT22;7388;51.078;13.740;2024-03-08T05:18:26;4.50;38.10
14604;DHT22;7388;51.078;13.740;2024-03-08T05:20:54;4.50;38.20
14604;DHT22;7388;51.078;13.740;2024-03-08T05:23:19;4.40;38.10
14604;DHT22;7388;51.078;13.740;2024-03-08T05:25:46;4.40;38.30
14604;DHT22;7388;51.078;13.740;2024-03-08T05:28:14;4.40;38.50
14604;DHT22;7388;51.078;13.740;2024-03-08T05:30:40;4.40;38.50
14604;DHT22;7388;51.078;13.740;2024-03-08T05:33:06;4.40;38.40
14604;DHT22;7388;51.078;13.740;2024-03-08T05:35:36;4.50;38.60
14604;DHT22;7388;51.078;13.740;2024-03-08T05:38:01;4.40;38.40
14604;DHT22;7388;51.078;13.740;2024-03-08T05:40:27;4.40;38.40
14604;DHT22;7388;51.078;13.740;2024-03-08T05:42:57;4.50;38.50
14604;DHT22;7388;51.078;13.740;2024-03-08T05:45:24;4.50;38.50
14604;DHT22;7388;51.078;13.740;2024-03-08T05:47:50;4.50;38.60
14604;DHT22;7388;51.078;13.740;2024-03-08T05:50:17;4.40;38.50
14604;DHT22;7388;51.078;13.740;2024-03-08T05:52:43;4.40;38.60
14604;DHT22;7388;51.078;13.740;2024-03-08T05:55:09;4.40;38.60
14604;DHT22;7388;51.078;13.740;2024-03-08T05:57:35;4.40;38.60
14604;DHT22;7388;51.078;13.740;2024-03-08T06:00:05;4.50;38.50
14604;DHT22;7388;51.078;13.740;2024-03-08T06:02:31;4.50;38.50
14604;DHT22;7388;51.078;13.740;2024-03-08T06:04:58;4.50;38.60
14604;DHT22;7388;51.078;13.740;2024-03-08T06:07:23;4.50;38.60
14604;DHT22;7388;51.078;13.740;2024-03-08T06:09:49;4.50;38.60
14604;DHT22;7388;51.078;13.740;2024-03-08T06:12:15;4.50;38.80
14604;DHT22;7388;51.078;13.740;2024-03-08T06:14:47;4.50;38.90
14604;DHT22;7388;51.078;13.740;2024-03-08T06:17:12;4.50;39.10
14604;DHT22;7388;51.078;13.740;2024-03-08T06:19:38;4.60;39.20
14604;DHT22;7388;51.078;13.740;2024-03-08T06:22:04;4.60;39.20
14604;DHT22;7388;51.078;13.740;2024-03-08T06:24:32;4.70;39.30
14604;DHT22;7388;51.078;13.740;2024-03-08T06:26:57;4.80;39.30
14604;DHT22;7388;51.078;13.740;2024-03-08T06:29:23;4.90;39.40
14604;DHT22;7388;51.078;13.740;2024-03-08T06:31:49;5.00;39.40
14604;DHT22;7388;51.078;13.740;2024-03-08T06:34:15;5.00;39.40
14604;DHT22;7388;51.078;13.740;2024-03-08T06:36:41;5.10;39.40
14604;DHT22;7388;51.078;13.740;2024-03-08T06:39:06;5.20;39.40
14604;DHT22;7388;51.078;13.740;2024-03-08T06:41:37;5.20;39.40
14604;DHT22;7388;51.078;13.740;2024-03-08T06:44:03;5.30;39.50
14604;DHT22;7388;51.078;13.740;2024-03-08T06:46:29;5.40;39.50
14604;DHT22;7388;51.078;13.740;2024-03-08T06:48:55;5.40;39.50
14604;DHT22;7388;51.078;13.740;2024-03-08T06:51:21;5.50;39.60
14604;DHT22;7388;51.078;13.740;2024-03-08T06:53:47;5.60;39.60
14604;DHT22;7388;51.078;13.740;2024-03-08T06:56:14;5.60;39.60
14604;DHT22;7388;51.078;13.740;2024-03-08T06:58:40;5.70;39.60
14604;DHT22;7388;51.078;13.740;2024-03-08T07:01:07;5.80;39.60
14604;DHT22;7388;51.078;13.740;2024-03-08T07:03:41;5.90;39.70
14604;DHT22;7388;51.078;13.740;2024-03-08T07:06:10;6.00;39.60
14604;DHT22;7388;51.078;13.740;2024-03-08T07:08:36;6.10;39.60
14604;DHT22;7388;51.078;13.740;2024-03-08T07:11:02;6.20;39.50
14604;DHT22;7388;51.078;13.740;2024-03-08T07:13:29;6.30;39.50
14604;DHT22;7388;51.078;13.740;2024-03-08T07:15:55;6.40;39.60
14604;DHT22;7388;51.078;13.740;2024-03-08T07:18:21;6.50;40.20
14604;DHT22;7388;51.078;13.740;2024-03-08T07:20:47;6.60;39.60
14604;DHT22;7388;51.078;13.740;2024-03-08T07:23:14;6.70;39.60
14604;DHT22;7388;51.078;13.740;2024-03-08T07:26:00;6.80;39.40
14604;DHT22;7388;51.078;13.740;2024-03-08T07:28:26;6.90;39.20
14604;DHT22;7388;51.078;13.740;2024-03-08T07:30:53;7.00;39.10
14604;DHT22;7388;51.078;13.740;2024-03-08T07:33:27;7.10;39.00
14604;DHT22;7388;51.078;13.740;2024-03-08T07:35:52;7.20;39.10
14604;DHT22;7388;51.078;13.740;2024-03-08T07:38:18;7.30;39.10
14604;DHT22;7388;51.078;13.740;2024-03-08T07:40:46;7.40;39.00
14604;DHT22;7388;51.078;13.740;2024-03-08T07:43:13;7.50;38.20
14604;DHT22;7388;51.078;13.740;2024-03-08T07:45:39;7.50;38.10
14604;DHT22;7388;51.078;13.740;2024-03-08T07:48:06;7.60;38.10
14604;DHT22;7388;51.078;13.740;2024-03-08T07:50:38;7.60;37.70
14604;DHT22;7388;51.078;13.740;2024-03-08T07:53:05;7.70;37.80
14604;DHT22;7388;51.078;13.740;2024-03-08T07:55:32;7.80;38.10
14604;DHT22;7388;51.078;13.740;2024-03-08T07:57:58;8.00;38.20
14604;DHT22;7388;51.078;13.740;2024-03-08T08:00:25;8.20;38.30
14604;DHT22;7388;51.078;13.740;2024-03-08T08:02:53;8.40;38.00
14604;DHT22;7388;51.078;13.740;2024-03-08T08:05:19;8.50;37.30
14604;DHT22;7388;51.078;13.740;2024-03-08T08:07:45;8.60;36.80
14604;DHT22;7388;51.078;13.740;2024-03-08T08:10:12;8.70;36.30
14604;DHT22;7388;51.078;13.740;2024-03-08T08:12:47;8.80;37.00
14604;DHT22;7388;51.078;13.740;2024-03-08T08:15:13;9.00;37.00
14604;DHT22;7388;51.078;13.740;2024-03-08T08:17:44;9.20;36.80
14604;DHT22;7388;51.078;13.740;2024-03-08T08:20:13;9.40;36.10
14604;DHT22;7388;51.078;13.740;2024-03-08T08:22:39;9.60;35.20
14604;DHT22;7388;51.078;13.740;2024-03-08T08:25:06;9.60;35.10
14604;DHT22;7388;51.078;13.740;2024-03-08T08:27:32;9.70;34.80
14604;DHT22;7388;51.078;13.740;2024-03-08T08:29:58;9.90;35.60
14604;DHT22;7388;51.078;13.740;2024-03-08T08:32:24;10.00;34.70
14604;DHT22;7388;51.078;13.740;2024-03-08T08:34:50;10.20;34.90
14604;DHT22;7388;51.078;13.740;2024-03-08T08:37:16;10.30;34.80
14604;DHT22;7388;51.078;13.740;2024-03-08T08:39:42;10.40;34.00
14604;DHT22;7388;51.078;13.740;2024-03-08T08:42:08;10.60;34.10
14604;DHT22;7388;51.078;13.740;2024-03-08T08:44:36;10.70;34.10
14604;DHT22;7388;51.078;13.740;2024-03-08T08:47:03;11.00;34.50
14604;DHT22;7388;51.078;13.740;2024-03-08T08:49:29;11.10;33.90
14604;DHT22;7388;51.078;13.740;2024-03-08T08:51:56;11.30;34.30
14604;DHT22;7388;51.078;13.740;2024-03-08T08:54:24;11.50;34.00
14604;DHT22;7388;51.078;13.740;2024-03-08T08:56:50;11.70;33.40
14604;DHT22;7388;51.078;13.740;2024-03-08T08:59:16;11.90;32.40
14604;DHT22;7388;51.078;13.740;2024-03-08T09:01:46;12.00;31.40
14604;DHT22;7388;51.078;13.740;2024-03-08T09:04:15;12.00;31.20
14604;DHT22;7388;51.078;13.740;2024-03-08T09:06:42;12.10;31.50
14604;DHT22;7388;51.078;13.740;2024-03-08T09:09:07;12.10;29.60
14604;DHT22;7388;51.078;13.740;2024-03-08T09:11:39;12.10;31.00
14604;DHT22;7388;51.078;13.740;2024-03-08T09:14:08;12.20;30.90
14604;DHT22;7388;51.078;13.740;2024-03-08T09:16:34;12.30;30.40
14604;DHT22;7388;51.078;13.740;2024-03-08T09:19:00;12.40;29.20
14604;DHT22;7388;51.078;13.740;2024-03-08T09:21:26;12.50;29.90
14604;DHT22;7388;51.078;13.740;2024-03-08T09:23:53;12.60;30.40
14604;DHT22;7388;51.078;13.740;2024-03-08T09:26:19;12.70;29.80
14604;DHT22;7388;51.078;13.740;2024-03-08T09:28:45;12.70;29.80
14604;DHT22;7388;51.078;13.740;2024-03-08T09:31:11;12.80;29.20
14604;DHT22;7388;51.078;13.740;2024-03-08T09:33:37;12.90;29.10
14604;DHT22;7388;51.078;13.740;2024-03-08T09:36:06;13.00;29.50
14604;DHT22;7388;51.078;13.740;2024-03-08T09:38:33;13.00;28.60
14604;DHT22;7388;51.078;13.740;2024-03-08T09:41:00;13.10;28.50
14604;DHT22;7388;51.078;13.740;2024-03-08T09:43:28;13.30;28.30
14604;DHT22;7388;51.078;13.740;2024-03-08T09:45:53;13.30;28.10
14604;DHT22;7388;51.078;13.740;2024-03-08T09:48:22;13.30;28.60
14604;DHT22;7388;51.078;13.740;2024-03-08T09:50:48;13.40;27.30
14604;DHT22;7388;51.078;13.740;2024-03-08T09:53:15;13.50;27.10
14604;DHT22;7388;51.078;13.740;2024-03-08T09:55:41;13.50;26.80
14604;DHT22;7388;51.078;13.740;2024-03-08T09:58:11;13.60;27.30
14604;DHT22;7388;51.078;13.740;2024-03-08T10:00:56;13.80;27.90
14604;DHT22;7388;51.078;13.740;2024-03-08T10:03:27;14.00;27.50
14604;DHT22;7388;51.078;13.740;2024-03-08T10:05:54;14.10;26.20
14604;DHT22;7388;51.078;13.740;2024-03-08T10:08:22;14.20;26.10
14604;DHT22;7388;51.078;13.740;2024-03-08T10:10:47;14.40;27.70
14604;DHT22;7388;51.078;13.740;2024-03-08T10:13:15;14.50;26.30
14604;DHT22;7388;51.078;13.740;2024-03-08T10:15:42;14.50;24.80
14604;DHT22;7388;51.078;13.740;2024-03-08T10:18:09;14.40;24.70
14604;DHT22;7388;51.078;13.740;2024-03-08T10:20:36;14.40;25.40
14604;DHT22;7388;51.078;13.740;2024-03-08T10:23:04;14.50;25.80
14604;DHT22;7388;51.078;13.740;2024-03-08T10:25:31;14.60;25.70
14604;DHT22;7388;51.078;13.740;2024-03-08T10:27:57;14.70;25.50
14604;DHT22;7388;51.078;13.740;2024-03-08T10:30:23;14.70;26.10
14604;DHT22;7388;51.078;13.740;2024-03-08T10:32:49;14.70;25.40
14604;DHT22;7388;51.078;13.740;2024-03-08T10:35:15;14.80;25.20
14604;DHT22;7388;51.078;13.740;2024-03-08T10:37:46;14.90;25.20
14604;DHT22;7388;51.078;13.740;2024-03-08T10:40:19;15.00;25.00
14604;DHT22;7388;51.078;13.740;2024-03-08T10:42:58;15.00;24.20
14604;DHT22;7388;51.078;13.740;2024-03-08T10:45:35;15.20;25.20
14604;DHT22;7388;51.078;13.740;2024-03-08T10:48:26;15.40;27.00
14604;DHT22;7388;51.078;13.740;2024-03-08T10:50:53;15.70;26.60
14604;DHT22;7388;51.078;13.740;2024-03-08T10:53:20;15.80;25.10
14604;DHT22;7388;51.078;13.740;2024-03-08T10:55:49;16.00;25.00
14604;DHT22;7388;51.078;13.740;2024-03-08T10:58:23;16.00;23.70
14604;DHT22;7388;51.078;13.740;2024-03-08T11:00:56;16.10;24.00
14604;DHT22;7388;51.078;13.740;2024-03-08T11:09:33;15.90;23.30
14604;DHT22;7388;51.078;13.740;2024-03-08T11:12:26;16.00;23.40
14604;DHT22;7388;51.078;13.740;2024-03-08T11:14:56;16.10;22.70
14604;DHT22;7388;51.078;13.740;2024-03-08T11:19:59;16.10;24.30
14604;DHT22;7388;51.078;13.740;2024-03-08T11:22:28;16.10;23.20
14604;DHT22;7388;51.078;13.740;2024-03-08T11:25:02;16.20;23.30
14604;DHT22;7388;51.078;13.740;2024-03-08T11:27:31;16.20;23.30
14604;DHT22;7388;51.078;13.740;2024-03-08T11:30:03;16.30;23.20
14604;DHT22;7388;51.078;13.740;2024-03-08T11:32:38;16.50;23.60
14604;DHT22;7388;51.078;13.740;2024-03-08T11:35:08;16.50;22.40
14604;DHT22;7388;51.078;13.740;2024-03-08T11:37:44;16.50;22.40
14604;DHT22;7388;51.078;13.740;2024-03-08T11:40:13;16.50;21.80
14604;DHT22;7388;51.078;13.740;2024-03-08T11:42:48;16.50;22.00
14604;DHT22;7388;51.078;13.740;2024-03-08T11:45:15;16.70;22.80
14604;DHT22;7388;51.078;13.740;2024-03-08T11:47:45;16.80;22.20
14604;DHT22;7388;51.078;13.740;2024-03-08T11:50:12;17.00;22.10
14604;DHT22;7388;51.078;13.740;2024-03-08T11:52:38;16.90;21.60
14604;DHT22;7388;51.078;13.740;2024-03-08T11:55:04;17.00;22.00
14604;DHT22;7388;51.078;13.740;2024-03-08T11:57:31;17.10;22.30
14604;DHT22;7388;51.078;13.740;2024-03-08T11:59:58;17.20;22.30
14604;DHT22;7388;51.078;13.740;2024-03-08T12:02:25;17.50;23.20
14604;DHT22;7388;51.078;13.740;2024-03-08T12:05:00;17.70;23.80
14604;DHT22;7388;51.078;13.740;2024-03-08T12:07:29;17.90;20.40
14604;DHT22;7388;51.078;13.740;2024-03-08T12:10:20;17.70;21.00
14604;DHT22;7388;51.078;13.740;2024-03-08T12:12:52;17.80;20.10
14604;DHT22;7388;51.078;13.740;2024-03-08T12:15:22;17.60;20.00
14604;DHT22;7388;51.078;13.740;2024-03-08T12:17:50;17.70;20.40
14604;DHT22;7388;51.078;13.740;2024-03-08T12:22:44;18.10;20.10
14604;DHT22;7388;51.078;13.740;2024-03-08T12:25:13;18.40;20.30
14604;DHT22;7388;51.078;13.740;2024-03-08T12:27:43;18.60;20.00
14604;DHT22;7388;51.078;13.740;2024-03-08T12:30:35;18.90;20.00
14604;DHT22;7388;51.078;13.740;2024-03-08T12:33:00;19.00;19.40
14604;DHT22;7388;51.078;13.740;2024-03-08T12:35:27;19.00;20.40
14604;DHT22;7388;51.078;13.740;2024-03-08T12:37:55;19.00;19.30
14604;DHT22;7388;51.078;13.740;2024-03-08T12:40:30;18.90;19.60
14604;DHT22;7388;51.078;13.740;2024-03-08T12:43:06;18.90;19.60
14604;DHT22;7388;51.078;13.740;2024-03-08T12:45:32;18.70;19.50
14604;DHT22;7388;51.078;13.740;2024-03-08T12:47:58;18.50;19.50
14604;DHT22;7388;51.078;13.740;2024-03-08T12:50:25;18.40;19.60
14604;DHT22;7388;51.078;13.740;2024-03-08T12:52:51;18.30;20.90
14604;DHT22;7388;51.078;13.740;2024-03-08T12:55:21;18.30;21.30
14604;DHT22;7388;51.078;13.740;2024-03-08T12:57:47;18.40;20.90
14604;DHT22;7388;51.078;13.740;2024-03-08T13:00:14;18.30;19.30
14604;DHT22;7388;51.078;13.740;2024-03-08T13:02:47;18.40;20.30
14604;DHT22;7388;51.078;13.740;2024-03-08T13:05:13;18.60;21.20
14604;DHT22;7388;51.078;13.740;2024-03-08T13:07:43;18.90;20.00
14604;DHT22;7388;51.078;13.740;2024-03-08T13:10:15;19.10;20.50
14604;DHT22;7388;51.078;13.740;2024-03-08T13:12:44;19.30;20.50
14604;DHT22;7388;51.078;13.740;2024-03-08T13:15:10;19.50;19.30
14604;DHT22;7388;51.078;13.740;2024-03-08T13:17:41;19.60;19.40
14604;DHT22;7388;51.078;13.740;2024-03-08T13:20:08;19.70;19.30
14604;DHT22;7388;51.078;13.740;2024-03-08T13:22:35;19.90;18.90
14604;DHT22;7388;51.078;13.740;2024-03-08T13:25:01;19.90;18.80
14604;DHT22;7388;51.078;13.740;2024-03-08T13:27:28;20.00;19.80
14604;DHT22;7388;51.078;13.740;2024-03-08T13:29:54;20.00;19.80
14604;DHT22;7388;51.078;13.740;2024-03-08T13:32:19;20.20;18.80
14604;DHT22;7388;51.078;13.740;2024-03-08T13:34:49;20.20;18.50
14604;DHT22;7388;51.078;13.740;2024-03-08T13:37:19;20.00;18.10
14604;DHT22;7388;51.078;13.740;2024-03-08T13:39:45;20.00;18.70
14604;DHT22;7388;51.078;13.740;2024-03-08T13:42:11;19.90;18.90
14604;DHT22;7388;51.078;13.740;2024-03-08T13:44:47;19.90;18.60
14604;DHT22;7388;51.078;13.740;2024-03-08T13:47:17;20.00;18.80
14604;DHT22;7388;51.078;13.740;2024-03-08T13:49:43;19.70;18.40
14604;DHT22;7388;51.078;13.740;2024-03-08T13:52:09;19.60;19.30
14604;DHT22;7388;51.078;13.740;2024-03-08T13:54:36;19.70;18.70
14604;DHT22;7388;51.078;13.740;2024-03-08T13:57:02;19.70;18.90
14604;DHT22;7388;51.078;13.740;2024-03-08T13:59:33;19.80;19.00
14604;DHT22;7388;51.078;13.740;2024-03-08T14:02:02;19.90;19.10
14604;DHT22;7388;51.078;13.740;2024-03-08T14:04:28;19.60;18.50
14604;DHT22;7388;51.078;13.740;2024-03-08T14:06:54;19.30;19.60
14604;DHT22;7388;51.078;13.740;2024-03-08T14:09:25;19.10;19.50
14604;DHT22;7388;51.078;13.740;2024-03-08T14:11:55;18.70;20.00
14604;DHT22;7388;51.078;13.740;2024-03-08T14:14:23;18.50;20.20
14604;DHT22;7388;51.078;13.740;2024-03-08T14:16:49;18.30;20.10
14604;DHT22;7388;51.078;13.740;2024-03-08T14:19:20;18.40;21.20
14604;DHT22;7388;51.078;13.740;2024-03-08T14:21:46;18.40;20.40
14604;DHT22;7388;51.078;13.740;2024-03-08T14:24:14;18.70;20.60
14604;DHT22;7388;51.078;13.740;2024-03-08T14:26:40;19.10;21.50
14604;DHT22;7388;51.078;13.740;2024-03-08T14:29:08;19.40;20.60
14604;DHT22;7388;51.078;13.740;2024-03-08T14:31:36;19.50;19.90
14604;DHT22;7388;51.078;13.740;2024-03-08T14:34:02;19.50;19.80
14604;DHT22;7388;51.078;13.740;2024-03-08T14:36:29;19.50;19.20
14604;DHT22;7388;51.078;13.740;2024-03-08T14:38:55;19.40;19.50
14604;DHT22;7388;51.078;13.740;2024-03-08T14:41:20;19.20;19.60
14604;DHT22;7388;51.078;13.740;2024-03-08T14:43:47;19.10;20.00
14604;DHT22;7388;51.078;13.740;2024-03-08T14:46:16;19.00;20.20
14604;DHT22;7388;51.078;13.740;2024-03-08T14:48:49;18.90;21.10
14604;DHT22;7388;51.078;13.740;2024-03-08T14:51:17;18.80;19.80
14604;DHT22;7388;51.078;13.740;2024-03-08T14:53:45;18.70;20.40
14604;DHT22;7388;51.078;13.740;2024-03-08T14:56:12;18.70;20.40
14604;DHT22;7388;51.078;13.740;2024-03-08T14:58:45;18.70;20.70
14604;DHT22;7388;51.078;13.740;2024-03-08T15:01:12;18.60;20.10
14604;DHT22;7388;51.078;13.740;2024-03-08T15:03:41;18.40;20.40
14604;DHT22;7388;51.078;13.740;2024-03-08T15:06:09;18.10;20.30
14604;DHT22;7388;51.078;13.740;2024-03-08T15:08:36;18.00;20.90
14604;DHT22;7388;51.078;13.740;2024-03-08T15:11:03;17.70;21.30
14604;DHT22;7388;51.078;13.740;2024-03-08T15:13:28;17.60;21.80
14604;DHT22;7388;51.078;13.740;2024-03-08T15:16:05;17.40;21.70
14604;DHT22;7388;51.078;13.740;2024-03-08T15:18:32;17.20;22.00
14604;DHT22;7388;51.078;13.740;2024-03-08T15:21:05;17.00;22.30
14604;DHT22;7388;51.078;13.740;2024-03-08T15:23:35;16.90;22.80
14604;DHT22;7388;51.078;13.740;2024-03-08T15:26:01;16.80;22.60
14604;DHT22;7388;51.078;13.740;2024-03-08T15:28:27;16.90;22.50
14604;DHT22;7388;51.078;13.740;2024-03-08T15:31:02;16.70;22.80
14604;DHT22;7388;51.078;13.740;2024-03-08T15:33:35;16.80;22.90
14604;DHT22;7388;51.078;13.740;2024-03-08T15:36:08;16.60;22.90
14604;DHT22;7388;51.078;13.740;2024-03-08T15:38:35;16.40;23.20
14604;DHT22;7388;51.078;13.740;2024-03-08T15:41:03;16.40;23.50
14604;DHT22;7388;51.078;13.740;2024-03-08T15:43:41;16.30;23.70
14604;DHT22;7388;51.078;13.740;2024-03-08T15:46:09;16.20;23.70
14604;DHT22;7388;51.078;13.740;2024-03-08T15:48:36;16.20;23.90
14604;DHT22;7388;51.078;13.740;2024-03-08T15:51:06;16.30;23.90
14604;DHT22;7388;51.078;13.740;2024-03-08T15:53:35;16.30;24.00